sensor_id;sensor_type;location;lat;lon;timestamp;P1;durP1;ratioP1;P2;durP2;ratioP2
52210;SDS011;38179;52.756;6.906;2023-04-02T00:02:48;15.98;;;12.15;;
52210;SDS011;38179;52.756;6.906;2023-04-02T00:08:01;14.57;;;10.35;;
52210;SDS011;38179;52.756;6.906;2023-04-02T00:10:38;13.32;;;11.75;;
52210;SDS011;38179;52.756;6.906;2023-04-02T00:15:40;13.10;;;11.70;;
52210;SDS011;38179;52.756;6.906;2023-04-02T00:18:09;14.33;;;11.90;;
52210;SDS011;38179;52.756;6.906;2023-04-02T00:20:40;17.75;;;12.65;;
52210;SDS011;38179;52.756;6.906;2023-04-02T00:23:11;15.32;;;11.82;;
52210;SDS011;38179;52.756;6.906;2023-04-02T00:25:40;16.90;;;11.60;;
52210;SDS011;38179;52.756;6.906;2023-04-02T00:28:13;14.07;;;10.45;;
52210;SDS011;38179;52.756;6.906;2023-04-02T00:30:47;14.07;;;10.82;;
52210;SDS011;38179;52.756;6.906;2023-04-02T00:33:19;14.27;;;10.82;;
52210;SDS011;38179;52.756;6.906;2023-04-02T00:35:48;15.00;;;10.40;;
52210;SDS011;38179;52.756;6.906;2023-04-02T00:38:26;12.93;;;10.38;;
52210;SDS011;38179;52.756;6.906;2023-04-02T00:40:55;12.55;;;10.07;;
52210;SDS011;38179;52.756;6.906;2023-04-02T00:43:24;11.40;;;9.52;;
52210;SDS011;38179;52.756;6.906;2023-04-02T00:46:01;13.07;;;10.18;;
52210;SDS011;38179;52.756;6.906;2023-04-02T00:53:45;13.02;;;10.15;;
52210;SDS011;38179;52.756;6.906;2023-04-02T00:56:18;13.82;;;10.20;;
52210;SDS011;38179;52.756;6.906;2023-04-02T00:58:51;13.93;;;10.55;;
52210;SDS011;38179;52.756;6.906;2023-04-02T01:01:21;13.48;;;9.63;;
52210;SDS011;38179;52.756;6.906;2023-04-02T01:03:59;13.00;;;9.68;;
52210;SDS011;38179;52.756;6.906;2023-04-02T01:06:31;15.35;;;9.90;;
52210;SDS011;38179;52.756;6.906;2023-04-02T01:09:03;14.73;;;10.23;;
52210;SDS011;38179;52.756;6.906;2023-04-02T01:25:40;9.35;;;7.32;;
52210;SDS011;38179;52.756;6.906;2023-04-02T01:28:15;10.60;;;7.43;;
52210;SDS011;38179;52.756;6.906;2023-04-02T01:30:44;9.73;;;7.60;;
52210;SDS011;38179;52.756;6.906;2023-04-02T01:33:16;9.43;;;7.68;;
52210;SDS011;38179;52.756;6.906;2023-04-02T01:35:45;10.07;;;7.35;;
52210;SDS011;38179;52.756;6.906;2023-04-02T01:38:18;10.43;;;7.10;;
52210;SDS011;38179;52.756;6.906;2023-04-02T01:41:08;9.27;;;7.00;;
52210;SDS011;38179;52.756;6.906;2023-04-02T01:46:27;10.77;;;7.63;;
52210;SDS011;38179;52.756;6.906;2023-04-02T01:49:31;11.10;;;7.57;;
52210;SDS011;38179;52.756;6.906;2023-04-02T01:51:53;10.68;;;7.93;;
52210;SDS011;38179;52.756;6.906;2023-04-02T01:54:20;9.93;;;7.40;;
52210;SDS011;38179;52.756;6.906;2023-04-02T01:56:48;8.75;;;7.20;;
52210;SDS011;38179;52.756;6.906;2023-04-02T01:59:18;10.35;;;6.85;;
52210;SDS011;38179;52.756;6.906;2023-04-02T02:01:48;10.85;;;6.55;;
52210;SDS011;38179;52.756;6.906;2023-04-02T02:04:21;10.75;;;7.97;;
52210;SDS011;38179;52.756;6.906;2023-04-02T02:06:47;10.93;;;7.40;;
52210;SDS011;38179;52.756;6.906;2023-04-02T02:09:19;9.40;;;6.10;;
52210;SDS011;38179;52.756;6.906;2023-04-02T02:11:48;12.18;;;7.15;;
52210;SDS011;38179;52.756;6.906;2023-04-02T02:14:18;9.80;;;6.55;;
52210;SDS011;38179;52.756;6.906;2023-04-02T02:16:47;15.05;;;6.70;;
52210;SDS011;38179;52.756;6.906;2023-04-02T02:19:31;8.82;;;6.50;;
52210;SDS011;38179;52.756;6.906;2023-04-02T02:24:57;12.05;;;6.43;;
52210;SDS011;38179;52.756;6.906;2023-04-02T02:30:08;9.23;;;6.37;;
52210;SDS011;38179;52.756;6.906;2023-04-02T02:33:27;7.63;;;5.70;;
52210;SDS011;38179;52.756;6.906;2023-04-02T02:38:41;10.82;;;6.47;;
52210;SDS011;38179;52.756;6.906;2023-04-02T02:44:10;7.97;;;5.90;;
52210;SDS011;38179;52.756;6.906;2023-04-02T02:47:00;7.90;;;6.18;;
52210;SDS011;38179;52.756;6.906;2023-04-02T02:49:33;12.10;;;6.10;;
52210;SDS011;38179;52.756;6.906;2023-04-02T02:52:16;10.45;;;6.60;;
52210;SDS011;38179;52.756;6.906;2023-04-02T02:54:53;12.82;;;6.22;;
52210;SDS011;38179;52.756;6.906;2023-04-02T02:57:24;10.05;;;6.10;;
52210;SDS011;38179;52.756;6.906;2023-04-02T02:59:53;9.77;;;6.45;;
52210;SDS011;38179;52.756;6.906;2023-04-02T03:02:22;10.98;;;6.22;;
52210;SDS011;38179;52.756;6.906;2023-04-02T03:04:49;9.70;;;6.55;;
52210;SDS011;38179;52.756;6.906;2023-04-02T03:07:18;10.88;;;6.80;;
52210;SDS011;38179;52.756;6.906;2023-04-02T03:12:42;9.27;;;6.20;;
52210;SDS011;38179;52.756;6.906;2023-04-02T03:15:20;11.93;;;6.00;;
52210;SDS011;38179;52.756;6.906;2023-04-02T03:25:40;11.88;;;7.35;;
52210;SDS011;38179;52.756;6.906;2023-04-02T03:28:21;11.55;;;6.65;;
52210;SDS011;38179;52.756;6.906;2023-04-02T03:30:52;10.73;;;7.38;;
52210;SDS011;38179;52.756;6.906;2023-04-02T03:33:58;10.75;;;6.60;;
52210;SDS011;38179;52.756;6.906;2023-04-02T03:36:37;9.65;;;7.70;;
52210;SDS011;38179;52.756;6.906;2023-04-02T03:39:23;10.13;;;6.93;;
52210;SDS011;38179;52.756;6.906;2023-04-02T03:42:06;10.80;;;7.75;;
52210;SDS011;38179;52.756;6.906;2023-04-02T03:45:01;10.70;;;7.63;;
52210;SDS011;38179;52.756;6.906;2023-04-02T03:47:37;10.23;;;7.53;;
52210;SDS011;38179;52.756;6.906;2023-04-02T03:50:12;11.15;;;7.80;;
52210;SDS011;38179;52.756;6.906;2023-04-02T03:52:45;12.77;;;8.45;;
52210;SDS011;38179;52.756;6.906;2023-04-02T04:03:40;12.85;;;8.18;;
52210;SDS011;38179;52.756;6.906;2023-04-02T04:06:26;11.65;;;7.95;;
52210;SDS011;38179;52.756;6.906;2023-04-02T04:08:56;10.30;;;6.95;;
52210;SDS011;38179;52.756;6.906;2023-04-02T04:11:43;12.60;;;8.70;;
52210;SDS011;38179;52.756;6.906;2023-04-02T04:14:15;12.77;;;8.45;;
52210;SDS011;38179;52.756;6.906;2023-04-02T04:17:00;10.48;;;7.88;;
52210;SDS011;38179;52.756;6.906;2023-04-02T04:19:58;11.98;;;8.98;;
52210;SDS011;38179;52.756;6.906;2023-04-02T04:22:32;11.48;;;8.43;;
52210;SDS011;38179;52.756;6.906;2023-04-02T04:25:02;10.63;;;8.20;;
52210;SDS011;38179;52.756;6.906;2023-04-02T04:30:24;14.07;;;9.00;;
52210;SDS011;38179;52.756;6.906;2023-04-02T04:35:56;16.00;;;9.02;;
52210;SDS011;38179;52.756;6.906;2023-04-02T04:38:37;13.02;;;8.88;;
52210;SDS011;38179;52.756;6.906;2023-04-02T04:41:41;12.75;;;8.48;;
52210;SDS011;38179;52.756;6.906;2023-04-02T04:49:51;12.35;;;9.20;;
52210;SDS011;38179;52.756;6.906;2023-04-02T04:54:53;13.60;;;9.35;;
52210;SDS011;38179;52.756;6.906;2023-04-02T05:00:14;11.25;;;9.15;;
52210;SDS011;38179;52.756;6.906;2023-04-02T05:02:45;11.93;;;9.73;;
52210;SDS011;38179;52.756;6.906;2023-04-02T05:05:18;17.40;;;9.65;;
52210;SDS011;38179;52.756;6.906;2023-04-02T05:07:50;14.50;;;9.23;;
52210;SDS011;38179;52.756;6.906;2023-04-02T05:10:35;10.68;;;9.10;;
52210;SDS011;38179;52.756;6.906;2023-04-02T05:13:28;15.18;;;9.82;;
52210;SDS011;38179;52.756;6.906;2023-04-02T05:16:14;10.70;;;8.52;;
52210;SDS011;38179;52.756;6.906;2023-04-02T05:21:39;12.88;;;9.02;;
52210;SDS011;38179;52.756;6.906;2023-04-02T05:26:50;14.30;;;8.70;;
52210;SDS011;38179;52.756;6.906;2023-04-02T05:29:38;11.32;;;7.05;;
52210;SDS011;38179;52.756;6.906;2023-04-02T05:32:07;9.25;;;6.95;;
52210;SDS011;38179;52.756;6.906;2023-04-02T05:34:34;12.00;;;7.77;;
52210;SDS011;38179;52.756;6.906;2023-04-02T05:37:02;14.90;;;7.20;;
52210;SDS011;38179;52.756;6.906;2023-04-02T05:39:31;9.82;;;7.35;;
52210;SDS011;38179;52.756;6.906;2023-04-02T05:44:33;11.38;;;6.03;;
52210;SDS011;38179;52.756;6.906;2023-04-02T05:47:13;11.20;;;6.95;;
52210;SDS011;38179;52.756;6.906;2023-04-02T05:52:38;8.90;;;6.28;;
52210;SDS011;38179;52.756;6.906;2023-04-02T05:57:49;9.73;;;6.40;;
52210;SDS011;38179;52.756;6.906;2023-04-02T06:00:40;11.27;;;6.45;;
52210;SDS011;38179;52.756;6.906;2023-04-02T06:05:51;8.82;;;5.57;;
52210;SDS011;38179;52.756;6.906;2023-04-02T06:08:22;7.07;;;5.47;;
52210;SDS011;38179;52.756;6.906;2023-04-02T06:10:57;7.90;;;5.63;;
52210;SDS011;38179;52.756;6.906;2023-04-02T06:13:36;9.05;;;5.75;;
52210;SDS011;38179;52.756;6.906;2023-04-02T06:16:02;8.25;;;5.80;;
52210;SDS011;38179;52.756;6.906;2023-04-02T06:18:29;11.35;;;6.32;;
52210;SDS011;38179;52.756;6.906;2023-04-02T06:20:58;11.10;;;5.88;;
52210;SDS011;38179;52.756;6.906;2023-04-02T06:32:12;9.65;;;5.45;;
52210;SDS011;38179;52.756;6.906;2023-04-02T06:34:38;7.80;;;5.60;;
52210;SDS011;38179;52.756;6.906;2023-04-02T06:37:21;10.32;;;5.22;;
52210;SDS011;38179;52.756;6.906;2023-04-02T06:39:50;7.43;;;5.43;;
52210;SDS011;38179;52.756;6.906;2023-04-02T06:42:17;10.95;;;6.38;;
52210;SDS011;38179;52.756;6.906;2023-04-02T06:44:46;7.82;;;5.80;;
52210;SDS011;38179;52.756;6.906;2023-04-02T06:50:27;12.57;;;6.00;;
52210;SDS011;38179;52.756;6.906;2023-04-02T06:53:01;10.13;;;5.95;;
52210;SDS011;38179;52.756;6.906;2023-04-02T06:58:13;9.45;;;6.50;;
52210;SDS011;38179;52.756;6.906;2023-04-02T07:00:41;7.50;;;5.55;;
52210;SDS011;38179;52.756;6.906;2023-04-02T07:03:18;9.13;;;5.70;;
52210;SDS011;38179;52.756;6.906;2023-04-02T07:05:48;12.52;;;6.05;;
52210;SDS011;38179;52.756;6.906;2023-04-02T07:08:13;10.10;;;5.93;;
52210;SDS011;38179;52.756;6.906;2023-04-02T07:10:43;15.57;;;6.60;;
52210;SDS011;38179;52.756;6.906;2023-04-02T07:13:19;7.63;;;5.63;;
52210;SDS011;38179;52.756;6.906;2023-04-02T07:15:50;12.65;;;5.88;;
52210;SDS011;38179;52.756;6.906;2023-04-02T07:18:32;8.95;;;5.55;;
52210;SDS011;38179;52.756;6.906;2023-04-02T07:20:58;8.80;;;5.43;;
52210;SDS011;38179;52.756;6.906;2023-04-02T07:23:24;6.90;;;5.03;;
52210;SDS011;38179;52.756;6.906;2023-04-02T07:25:53;10.38;;;5.53;;
52210;SDS011;38179;52.756;6.906;2023-04-02T07:28:21;9.20;;;5.93;;
52210;SDS011;38179;52.756;6.906;2023-04-02T07:30:47;12.88;;;5.85;;
52210;SDS011;38179;52.756;6.906;2023-04-02T07:33:16;9.32;;;5.60;;
52210;SDS011;38179;52.756;6.906;2023-04-02T07:35:45;11.80;;;5.85;;
52210;SDS011;38179;52.756;6.906;2023-04-02T07:38:14;8.88;;;5.22;;
52210;SDS011;38179;52.756;6.906;2023-04-02T07:40:42;10.40;;;5.35;;
52210;SDS011;38179;52.756;6.906;2023-04-02T07:43:08;12.38;;;6.47;;
52210;SDS011;38179;52.756;6.906;2023-04-02T07:45:34;9.77;;;5.80;;
52210;SDS011;38179;52.756;6.906;2023-04-02T07:48:07;7.43;;;5.65;;
52210;SDS011;38179;52.756;6.906;2023-04-02T07:50:36;12.88;;;6.32;;
52210;SDS011;38179;52.756;6.906;2023-04-02T07:53:02;9.23;;;6.10;;
52210;SDS011;38179;52.756;6.906;2023-04-02T07:55:28;6.55;;;5.30;;
52210;SDS011;38179;52.756;6.906;2023-04-02T07:57:56;11.15;;;5.97;;
52210;SDS011;38179;52.756;6.906;2023-04-02T08:00:24;7.82;;;5.60;;
52210;SDS011;38179;52.756;6.906;2023-04-02T08:02:51;8.00;;;5.65;;
52210;SDS011;38179;52.756;6.906;2023-04-02T08:05:18;16.38;;;6.15;;
52210;SDS011;38179;52.756;6.906;2023-04-02T08:07:51;10.25;;;5.82;;
52210;SDS011;38179;52.756;6.906;2023-04-02T08:10:21;11.43;;;6.07;;
52210;SDS011;38179;52.756;6.906;2023-04-02T08:12:47;7.15;;;5.57;;
52210;SDS011;38179;52.756;6.906;2023-04-02T08:15:14;9.48;;;5.82;;
52210;SDS011;38179;52.756;6.906;2023-04-02T08:17:40;10.45;;;6.47;;
52210;SDS011;38179;52.756;6.906;2023-04-02T08:20:08;8.55;;;6.35;;
52210;SDS011;38179;52.756;6.906;2023-04-02T08:22:39;10.18;;;5.90;;
52210;SDS011;38179;52.756;6.906;2023-04-02T08:25:05;9.30;;;6.28;;
52210;SDS011;38179;52.756;6.906;2023-04-02T08:27:31;10.18;;;6.20;;
52210;SDS011;38179;52.756;6.906;2023-04-02T08:29:57;8.32;;;6.78;;
52210;SDS011;38179;52.756;6.906;2023-04-02T08:32:23;11.38;;;6.57;;
52210;SDS011;38179;52.756;6.906;2023-04-02T08:34:50;8.25;;;6.68;;
52210;SDS011;38179;52.756;6.906;2023-04-02T08:37:16;11.73;;;7.25;;
52210;SDS011;38179;52.756;6.906;2023-04-02T08:39:42;9.60;;;6.60;;
52210;SDS011;38179;52.756;6.906;2023-04-02T08:42:22;8.15;;;6.53;;
52210;SDS011;38179;52.756;6.906;2023-04-02T08:47:34;9.88;;;6.57;;
52210;SDS011;38179;52.756;6.906;2023-04-02T08:50:03;8.57;;;7.13;;
52210;SDS011;38179;52.756;6.906;2023-04-02T08:52:50;8.00;;;6.32;;
52210;SDS011;38179;52.756;6.906;2023-04-02T08:55:30;8.55;;;7.03;;
52210;SDS011;38179;52.756;6.906;2023-04-02T08:58:24;9.32;;;7.35;;
52210;SDS011;38179;52.756;6.906;2023-04-02T09:00:55;9.45;;;6.43;;
52210;SDS011;38179;52.756;6.906;2023-04-02T09:03:34;7.93;;;5.93;;
52210;SDS011;38179;52.756;6.906;2023-04-02T09:06:10;9.68;;;7.03;;
52210;SDS011;38179;52.756;6.906;2023-04-02T09:08:40;9.40;;;6.20;;
52210;SDS011;38179;52.756;6.906;2023-04-02T09:11:17;11.38;;;7.20;;
52210;SDS011;38179;52.756;6.906;2023-04-02T09:13:44;11.63;;;7.35;;
52210;SDS011;38179;52.756;6.906;2023-04-02T09:18:41;7.18;;;6.32;;
52210;SDS011;38179;52.756;6.906;2023-04-02T09:24:01;11.27;;;6.93;;
52210;SDS011;38179;52.756;6.906;2023-04-02T09:26:29;9.27;;;7.10;;
52210;SDS011;38179;52.756;6.906;2023-04-02T09:29:38;9.30;;;6.38;;
52210;SDS011;38179;52.756;6.906;2023-04-02T09:31:47;8.45;;;6.95;;
52210;SDS011;38179;52.756;6.906;2023-04-02T09:34:35;10.15;;;6.38;;
52210;SDS011;38179;52.756;6.906;2023-04-02T09:37:07;8.60;;;6.72;;
52210;SDS011;38179;52.756;6.906;2023-04-02T09:39:47;11.55;;;6.78;;
52210;SDS011;38179;52.756;6.906;2023-04-02T09:42:32;8.50;;;6.70;;
52210;SDS011;38179;52.756;6.906;2023-04-02T09:45:43;8.27;;;6.43;;
52210;SDS011;38179;52.756;6.906;2023-04-02T09:47:50;8.43;;;6.40;;
52210;SDS011;38179;52.756;6.906;2023-04-02T09:57:42;8.77;;;7.03;;
52210;SDS011;38179;52.756;6.906;2023-04-02T10:00:21;9.27;;;6.55;;
52210;SDS011;38179;52.756;6.906;2023-04-02T10:03:04;11.05;;;6.88;;
52210;SDS011;38179;52.756;6.906;2023-04-02T10:05:44;10.48;;;6.63;;
52210;SDS011;38179;52.756;6.906;2023-04-02T10:08:23;8.48;;;6.35;;
52210;SDS011;38179;52.756;6.906;2023-04-02T10:10:56;10.18;;;6.60;;
52210;SDS011;38179;52.756;6.906;2023-04-02T10:13:32;9.50;;;6.70;;
52210;SDS011;38179;52.756;6.906;2023-04-02T10:21:47;8.70;;;6.82;;
52210;SDS011;38179;52.756;6.906;2023-04-02T10:24:16;10.27;;;6.97;;
52210;SDS011;38179;52.756;6.906;2023-04-02T10:35:15;8.73;;;6.65;;
52210;SDS011;38179;52.756;6.906;2023-04-02T10:51:08;8.60;;;6.53;;
52210;SDS011;38179;52.756;6.906;2023-04-02T10:53:41;9.02;;;6.95;;
52210;SDS011;38179;52.756;6.906;2023-04-02T10:56:11;8.35;;;6.90;;
52210;SDS011;38179;52.756;6.906;2023-04-02T10:58:49;9.48;;;7.00;;
52210;SDS011;38179;52.756;6.906;2023-04-02T11:01:27;8.88;;;6.93;;
52210;SDS011;38179;52.756;6.906;2023-04-02T11:03:57;8.13;;;6.55;;
52210;SDS011;38179;52.756;6.906;2023-04-02T11:06:28;7.72;;;6.63;;
52210;SDS011;38179;52.756;6.906;2023-04-02T11:08:59;10.57;;;6.97;;
52210;SDS011;38179;52.756;6.906;2023-04-02T11:16:46;10.10;;;6.50;;
52210;SDS011;38179;52.756;6.906;2023-04-02T11:34:59;7.93;;;6.82;;
52210;SDS011;38179;52.756;6.906;2023-04-02T11:42:41;10.68;;;6.88;;
52210;SDS011;38179;52.756;6.906;2023-04-02T11:45:56;7.68;;;6.97;;
52210;SDS011;38179;52.756;6.906;2023-04-02T11:48:25;8.20;;;6.55;;
52210;SDS011;38179;52.756;6.906;2023-04-02T11:50:53;11.98;;;7.25;;
52210;SDS011;38179;52.756;6.906;2023-04-02T11:53:29;8.50;;;6.97;;
52210;SDS011;38179;52.756;6.906;2023-04-02T11:56:59;8.85;;;7.03;;
52210;SDS011;38179;52.756;6.906;2023-04-02T11:58:57;9.32;;;6.80;;
52210;SDS011;38179;52.756;6.906;2023-04-02T12:07:22;7.60;;;6.80;;
52210;SDS011;38179;52.756;6.906;2023-04-02T12:09:53;12.15;;;6.85;;
52210;SDS011;38179;52.756;6.906;2023-04-02T12:14:47;10.50;;;7.25;;
52210;SDS011;38179;52.756;6.906;2023-04-02T12:19:54;7.90;;;7.10;;
52210;SDS011;38179;52.756;6.906;2023-04-02T12:22:28;8.75;;;7.50;;
52210;SDS011;38179;52.756;6.906;2023-04-02T12:25:00;8.60;;;7.70;;
52210;SDS011;38179;52.756;6.906;2023-04-02T12:27:31;9.52;;;6.72;;
52210;SDS011;38179;52.756;6.906;2023-04-02T12:30:18;7.47;;;6.78;;
52210;SDS011;38179;52.756;6.906;2023-04-02T12:32:46;8.90;;;7.60;;
52210;SDS011;38179;52.756;6.906;2023-04-02T12:35:26;9.93;;;7.35;;
52210;SDS011;38179;52.756;6.906;2023-04-02T12:40:18;9.50;;;7.70;;
52210;SDS011;38179;52.756;6.906;2023-04-02T12:42:45;8.25;;;7.15;;
52210;SDS011;38179;52.756;6.906;2023-04-02T12:45:24;7.72;;;6.93;;
52210;SDS011;38179;52.756;6.906;2023-04-02T12:47:53;7.43;;;6.72;;
52210;SDS011;38179;52.756;6.906;2023-04-02T12:50:19;8.40;;;7.28;;
52210;SDS011;38179;52.756;6.906;2023-04-02T12:52:48;8.35;;;6.65;;
52210;SDS011;38179;52.756;6.906;2023-04-02T12:55:16;8.02;;;7.22;;
52210;SDS011;38179;52.756;6.906;2023-04-02T12:57:56;10.35;;;7.50;;
52210;SDS011;38179;52.756;6.906;2023-04-02T13:05:39;7.63;;;6.82;;
52210;SDS011;38179;52.756;6.906;2023-04-02T13:08:14;8.15;;;7.20;;
52210;SDS011;38179;52.756;6.906;2023-04-02T13:10:53;9.57;;;7.38;;
52210;SDS011;38179;52.756;6.906;2023-04-02T13:13:29;8.52;;;7.05;;
52210;SDS011;38179;52.756;6.906;2023-04-02T13:16:24;7.97;;;6.97;;
52210;SDS011;38179;52.756;6.906;2023-04-02T13:18:49;8.77;;;6.97;;
52210;SDS011;38179;52.756;6.906;2023-04-02T13:23:42;7.63;;;6.88;;
52210;SDS011;38179;52.756;6.906;2023-04-02T13:28:34;7.72;;;6.97;;
52210;SDS011;38179;52.756;6.906;2023-04-02T13:31:00;8.55;;;7.10;;
52210;SDS011;38179;52.756;6.906;2023-04-02T13:33:26;9.50;;;7.00;;
52210;SDS011;38179;52.756;6.906;2023-04-02T13:35:52;9.13;;;7.40;;
52210;SDS011;38179;52.756;6.906;2023-04-02T13:38:18;9.57;;;7.45;;
52210;SDS011;38179;52.756;6.906;2023-04-02T13:40:44;8.52;;;7.00;;
52210;SDS011;38179;52.756;6.906;2023-04-02T13:43:14;8.00;;;7.20;;
52210;SDS011;38179;52.756;6.906;2023-04-02T13:45:42;9.48;;;7.47;;
52210;SDS011;38179;52.756;6.906;2023-04-02T13:48:13;9.18;;;7.00;;
52210;SDS011;38179;52.756;6.906;2023-04-02T13:50:40;8.40;;;7.43;;
52210;SDS011;38179;52.756;6.906;2023-04-02T13:53:07;8.27;;;7.18;;
52210;SDS011;38179;52.756;6.906;2023-04-02T13:55:40;8.60;;;6.93;;
52210;SDS011;38179;52.756;6.906;2023-04-02T13:58:07;8.23;;;7.32;;
52210;SDS011;38179;52.756;6.906;2023-04-02T14:00:34;9.10;;;7.25;;
52210;SDS011;38179;52.756;6.906;2023-04-02T14:03:06;10.45;;;7.00;;
52210;SDS011;38179;52.756;6.906;2023-04-02T14:05:40;9.02;;;7.28;;
52210;SDS011;38179;52.756;6.906;2023-04-02T14:14:24;7.97;;;7.18;;
52210;SDS011;38179;52.756;6.906;2023-04-02T14:22:44;8.35;;;6.82;;
52210;SDS011;38179;52.756;6.906;2023-04-02T14:27:47;8.43;;;7.20;;
52210;SDS011;38179;52.756;6.906;2023-04-02T14:35:44;8.30;;;7.35;;
52210;SDS011;38179;52.756;6.906;2023-04-02T14:48:29;8.07;;;7.28;;
52210;SDS011;38179;52.756;6.906;2023-04-02T14:51:19;8.07;;;7.20;;
52210;SDS011;38179;52.756;6.906;2023-04-02T14:56:22;8.27;;;7.47;;
52210;SDS011;38179;52.756;6.906;2023-04-02T15:01:59;8.65;;;7.20;;
52210;SDS011;38179;52.756;6.906;2023-04-02T15:05:32;11.18;;;7.50;;
52210;SDS011;38179;52.756;6.906;2023-04-02T15:07:58;8.52;;;7.63;;
52210;SDS011;38179;52.756;6.906;2023-04-02T15:10:39;8.32;;;7.30;;
52210;SDS011;38179;52.756;6.906;2023-04-02T15:13:18;10.00;;;7.28;;
52210;SDS011;38179;52.756;6.906;2023-04-02T15:15:50;7.95;;;7.18;;
52210;SDS011;38179;52.756;6.906;2023-04-02T15:18:20;8.00;;;7.30;;
52210;SDS011;38179;52.756;6.906;2023-04-02T15:20:58;8.13;;;7.15;;
52210;SDS011;38179;52.756;6.906;2023-04-02T15:28:58;8.20;;;7.40;;
52210;SDS011;38179;52.756;6.906;2023-04-02T15:31:45;8.20;;;7.40;;
52210;SDS011;38179;52.756;6.906;2023-04-02T15:39:37;8.43;;;7.60;;
52210;SDS011;38179;52.756;6.906;2023-04-02T15:42:23;7.97;;;7.05;;
52210;SDS011;38179;52.756;6.906;2023-04-02T15:45:04;8.90;;;7.57;;
52210;SDS011;38179;52.756;6.906;2023-04-02T15:56:16;8.57;;;7.68;;
52210;SDS011;38179;52.756;6.906;2023-04-02T16:05:16;8.07;;;7.30;;
52210;SDS011;38179;52.756;6.906;2023-04-02T16:08:27;7.82;;;7.13;;
52210;SDS011;38179;52.756;6.906;2023-04-02T16:10:55;7.97;;;7.28;;
52210;SDS011;38179;52.756;6.906;2023-04-02T16:16:05;8.23;;;7.47;;
52210;SDS011;38179;52.756;6.906;2023-04-02T16:21:31;7.75;;;7.05;;
52210;SDS011;38179;52.756;6.906;2023-04-02T16:24:05;8.65;;;7.85;;
52210;SDS011;38179;52.756;6.906;2023-04-02T16:26:56;8.20;;;7.30;;
52210;SDS011;38179;52.756;6.906;2023-04-02T16:29:59;8.27;;;7.47;;
52210;SDS011;38179;52.756;6.906;2023-04-02T16:32:55;8.07;;;7.28;;
52210;SDS011;38179;52.756;6.906;2023-04-02T16:35:35;8.80;;;7.90;;
52210;SDS011;38179;52.756;6.906;2023-04-02T16:50:07;7.82;;;7.13;;
52210;SDS011;38179;52.756;6.906;2023-04-02T17:00:47;8.35;;;7.65;;
52210;SDS011;38179;52.756;6.906;2023-04-02T17:03:33;8.27;;;7.43;;
52210;SDS011;38179;52.756;6.906;2023-04-02T17:11:35;11.35;;;7.85;;
52210;SDS011;38179;52.756;6.906;2023-04-02T17:16:41;8.88;;;6.93;;
52210;SDS011;38179;52.756;6.906;2023-04-02T17:19:10;9.07;;;7.15;;
52210;SDS011;38179;52.756;6.906;2023-04-02T17:26:41;8.10;;;7.30;;
52210;SDS011;38179;52.756;6.906;2023-04-02T17:29:16;8.40;;;7.03;;
52210;SDS011;38179;52.756;6.906;2023-04-02T17:31:45;8.93;;;7.13;;
52210;SDS011;38179;52.756;6.906;2023-04-02T17:34:15;8.20;;;7.40;;
52210;SDS011;38179;52.756;6.906;2023-04-02T17:39:24;8.85;;;6.93;;
52210;SDS011;38179;52.756;6.906;2023-04-02T17:47:33;7.93;;;7.13;;
52210;SDS011;38179;52.756;6.906;2023-04-02T17:50:28;10.10;;;7.47;;
52210;SDS011;38179;52.756;6.906;2023-04-02T17:55:41;8.23;;;7.18;;
52210;SDS011;38179;52.756;6.906;2023-04-02T18:01:30;8.32;;;7.53;;
52210;SDS011;38179;52.756;6.906;2023-04-02T18:17:48;8.77;;;7.82;;
52210;SDS011;38179;52.756;6.906;2023-04-02T18:23:24;8.20;;;7.40;;
52210;SDS011;38179;52.756;6.906;2023-04-02T18:31:05;7.82;;;7.03;;
52210;SDS011;38179;52.756;6.906;2023-04-02T18:33:41;8.00;;;7.20;;
52210;SDS011;38179;52.756;6.906;2023-04-02T18:39:01;10.07;;;7.78;;
52210;SDS011;38179;52.756;6.906;2023-04-02T18:47:14;7.93;;;7.10;;
52210;SDS011;38179;52.756;6.906;2023-04-02T18:50:23;8.10;;;7.30;;
52210;SDS011;38179;52.756;6.906;2023-04-02T18:52:59;8.25;;;6.82;;
52210;SDS011;38179;52.756;6.906;2023-04-02T18:55:34;8.05;;;6.97;;
52210;SDS011;38179;52.756;6.906;2023-04-02T18:58:03;8.45;;;6.85;;
52210;SDS011;38179;52.756;6.906;2023-04-02T19:00:40;9.07;;;7.35;;
52210;SDS011;38179;52.756;6.906;2023-04-02T19:03:17;7.70;;;6.97;;
52210;SDS011;38179;52.756;6.906;2023-04-02T19:11:34;8.13;;;7.32;;
52210;SDS011;38179;52.756;6.906;2023-04-02T19:14:01;8.00;;;6.88;;
52210;SDS011;38179;52.756;6.906;2023-04-02T19:19:25;7.80;;;6.95;;
52210;SDS011;38179;52.756;6.906;2023-04-02T19:21:57;7.75;;;7.05;;
52210;SDS011;38179;52.756;6.906;2023-04-02T19:24:59;7.53;;;6.72;;
52210;SDS011;38179;52.756;6.906;2023-04-02T19:27:36;7.53;;;6.82;;
52210;SDS011;38179;52.756;6.906;2023-04-02T19:35:50;8.07;;;6.80;;
52210;SDS011;38179;52.756;6.906;2023-04-02T19:44:00;7.25;;;6.53;;
52210;SDS011;38179;52.756;6.906;2023-04-02T19:46:26;8.07;;;6.65;;
52210;SDS011;38179;52.756;6.906;2023-04-02T19:51:28;8.25;;;7.30;;
52210;SDS011;38179;52.756;6.906;2023-04-02T19:53:57;7.85;;;6.43;;
